Time;durP1;ratioP1;P1;durP2;ratioP2;P2;SDS_P1;SDS_P2;PMS_P1;PMS_P2;Temp;Humidity;BMP_temperature;BMP_pressure;BME280_temperature;BME280_humidity;BME280_pressure;Samples;Min_cycle;Max_cycle;Signal;HPM_P1;HPM_P2
2022/10/05 00:00:55;;;;;;;12.48;9.35;;;15.40;99.90;;;;;;5075812;28;20760;-44
2022/10/05 00:03:24;;;;;;;12.45;9.65;;;15.40;99.90;;;;;;5076355;28;20613;-44
2022/10/05 00:05:50;;;;;;;13.77;8.95;;;15.40;99.90;;;;;;5075697;28;20529;-45
2022/10/05 00:08:22;;;;;;;12.25;9.27;;;15.40;99.90;;;;;;5066529;28;20052;-43
2022/10/05 00:10:49;;;;;;;12.90;9.32;;;15.40;99.90;;;;;;5079672;28;20048;-45
2022/10/05 00:13:20;;;;;;;12.15;9.63;;;15.40;99.90;;;;;;5069002;28;20053;-46
2022/10/05 00:15:47;;;;;;;13.40;8.98;;;15.40;99.90;;;;;;5074677;28;20624;-45
2022/10/05 00:18:19;;;;;;;12.75;8.88;;;15.40;99.90;;;;;;5076404;28;20040;-48
2022/10/05 00:20:46;;;;;;;12.60;9.82;;;15.40;99.90;;;;;;5076093;28;20055;-42
2022/10/05 00:23:20;;;;;;;13.30;8.73;;;15.30;99.90;;;;;;5058283;28;20048;-45
2022/10/05 00:25:47;;;;;;;11.50;9.02;;;15.40;99.90;;;;;;5073931;28;20876;-44
2022/10/05 00:28:21;;;;;;;12.68;8.55;;;15.30;99.90;;;;;;5059867;28;20044;-46
2022/10/05 00:30:47;;;;;;;12.30;8.35;;;15.30;99.90;;;;;;5075375;28;20071;-43
2022/10/05 00:33:13;;;;;;;13.52;9.27;;;15.40;99.90;;;;;;5079464;28;20042;-44
2022/10/05 00:35:39;;;;;;;11.57;8.13;;;15.40;99.90;;;;;;5078445;28;20103;-47
2022/10/05 00:38:05;;;;;;;9.98;8.57;;;15.30;99.90;;;;;;5077640;28;20054;-44
2022/10/05 00:40:52;;;;;;;10.45;8.38;;;15.40;99.90;;;;;;5081337;28;20047;-46
2022/10/05 00:43:44;;;;;;;9.60;8.60;;;15.40;99.90;;;;;;5084342;28;20048;-45
2022/10/05 00:46:26;;;;;;;11.77;8.40;;;15.40;99.90;;;;;;5081737;28;20040;-44
2022/10/05 00:49:06;;;;;;;9.48;8.13;;;15.30;99.90;;;;;;5078800;28;20048;-47
2022/10/05 00:51:36;;;;;;;10.88;8.63;;;15.40;99.90;;;;;;5073656;28;20047;-44
2022/10/05 00:54:31;;;;;;;13.77;8.48;;;15.30;99.90;;;;;;5077773;28;20186;-43
2022/10/05 00:57:00;;;;;;;12.45;8.63;;;15.40;99.90;;;;;;5067874;28;20123;-41
2022/10/05 00:59:54;;;;;;;9.70;8.43;;;15.30;99.90;;;;;;5079200;28;20048;-44
2022/10/05 01:02:42;;;;;;;10.68;8.82;;;15.30;99.90;;;;;;5062120;28;20036;-48
2022/10/05 01:05:35;;;;;;;10.68;8.88;;;15.30;99.90;;;;;;5080522;28;20052;-43
2022/10/05 01:08:24;;;;;;;12.70;9.13;;;15.30;99.90;;;;;;5056971;28;20048;-43
2022/10/05 01:11:09;;;;;;;12.50;9.13;;;15.30;99.90;;;;;;5061734;28;20051;-44
2022/10/05 01:13:59;;;;;;;13.15;8.95;;;15.40;99.90;;;;;;5078796;28;20533;-44
2022/10/05 01:16:48;;;;;;;12.18;8.93;;;15.30;99.90;;;;;;5065375;28;20056;-44
2022/10/05 01:19:45;;;;;;;10.35;9.05;;;15.40;99.90;;;;;;5052554;28;20086;-46
2022/10/05 01:22:16;;;;;;;13.48;9.30;;;15.30;99.90;;;;;;5080657;28;20155;-45
2022/10/05 01:24:57;;;;;;;11.27;9.00;;;15.30;99.90;;;;;;5078823;28;20048;-45
2022/10/05 01:27:51;;;;;;;11.32;9.30;;;15.30;99.90;;;;;;5080710;28;20132;-44
2022/10/05 01:30:21;;;;;;;10.27;9.13;;;15.30;99.90;;;;;;5062170;28;20051;-43
2022/10/05 01:32:58;;;;;;;12.15;9.20;;;15.20;99.90;;;;;;5080594;28;20139;-43
2022/10/05 01:35:29;;;;;;;10.32;8.60;;;15.20;99.90;;;;;;5079058;28;20052;-46
2022/10/05 01:38:10;;;;;;;11.88;9.40;;;15.20;99.90;;;;;;5081900;28;20044;-44
2022/10/05 01:41:07;;;;;;;11.40;9.10;;;15.20;99.90;;;;;;5062014;28;20048;-45
2022/10/05 01:43:47;;;;;;;11.05;8.82;;;15.20;99.90;;;;;;5062623;28;20533;-42
2022/10/05 01:46:22;;;;;;;12.23;9.73;;;15.20;99.90;;;;;;5079080;28;20043;-46
2022/10/05 01:48:57;;;;;;;12.48;8.98;;;15.10;99.90;;;;;;5068450;28;20052;-43
2022/10/05 01:51:41;;;;;;;14.02;10.85;;;15.10;99.90;;;;;;5076999;28;20044;-43
2022/10/05 01:54:45;;;;;;;13.82;9.77;;;15.10;99.90;;;;;;5073064;28;20377;-46
2022/10/05 01:57:46;;;;;;;12.25;9.75;;;15.10;99.90;;;;;;5077117;28;20583;-43
2022/10/05 02:00:17;;;;;;;14.38;10.02;;;15.10;99.90;;;;;;5067135;28;20121;-43
2022/10/05 02:02:46;;;;;;;14.73;11.20;;;15.00;99.90;;;;;;5075310;28;20047;-44
2022/10/05 02:05:34;;;;;;;12.40;10.93;;;15.00;99.90;;;;;;5062971;28;20087;-47
2022/10/05 02:08:07;;;;;;;14.13;10.70;;;15.00;99.90;;;;;;5058251;28;20137;-47
2022/10/05 02:10:43;;;;;;;14.07;10.85;;;15.00;99.90;;;;;;5075901;28;20110;-44
2022/10/05 02:13:43;;;;;;;15.00;11.07;;;15.00;99.90;;;;;;5061125;28;20071;-44
2022/10/05 02:16:24;;;;;;;12.40;10.35;;;15.00;99.90;;;;;;5074716;28;20052;-44
2022/10/05 02:19:13;;;;;;;14.63;11.15;;;15.00;99.90;;;;;;5056444;28;20040;-44
2022/10/05 02:21:44;;;;;;;;;;;15.00;99.90;;;;;;5081452;28;20051;-45
2022/10/05 02:24:21;;;;;;;13.23;10.98;;;15.00;99.90;;;;;;5065277;28;19920;-45
2022/10/05 02:26:50;;;;;;;13.27;11.20;;;14.90;99.90;;;;;;5076853;28;20447;-44
2022/10/05 02:29:22;;;;;;;14.10;10.38;;;14.90;99.90;;;;;;5041740;28;20052;-44
2022/10/05 02:32:00;;;;;;;12.77;10.47;;;14.90;99.90;;;;;;5076846;28;20825;-43
2022/10/05 02:34:29;;;;;;;12.18;10.13;;;14.90;99.90;;;;;;5080257;28;20310;-44
2022/10/05 02:37:35;;;;;;;12.35;10.80;;;14.90;99.90;;;;;;5059464;28;20052;-44
2022/10/05 02:40:36;;;;;;;12.68;10.13;;;14.90;99.90;;;;;;5075031;28;20330;-43
2022/10/05 02:43:12;;;;;;;15.65;10.57;;;14.80;99.90;;;;;;5059835;28;20048;-46
2022/10/05 02:46:10;;;;;;;12.63;9.95;;;14.80;99.90;;;;;;5080616;28;20055;-46
2022/10/05 02:49:12;;;;;;;14.10;10.75;;;14.80;99.90;;;;;;5073868;28;20158;-46
2022/10/05 02:51:57;;;;;;;;;;;14.80;99.90;;;;;;5062427;28;20060;-45
2022/10/05 02:54:35;;;;;;;12.13;8.98;;;14.80;99.90;;;;;;5046595;28;19974;-48
2022/10/05 02:57:37;;;;;;;14.45;10.15;;;14.80;99.90;;;;;;5069353;28;20510;-47
2022/10/05 03:00:16;;;;;;;15.07;10.32;;;14.80;99.90;;;;;;5020930;28;20776;-49
2022/10/05 03:02:51;;;;;;;12.25;9.68;;;14.90;99.90;;;;;;5080600;28;20087;-46
2022/10/05 03:05:40;;;;;;;12.88;10.70;;;14.80;99.90;;;;;;5067995;28;20511;-60
2022/10/05 03:08:28;;;;;;;12.48;10.25;;;14.80;99.90;;;;;;5058453;28;20106;-60
2022/10/05 03:11:19;;;;;;;12.90;10.32;;;14.80;99.90;;;;;;5076756;28;20070;-60
2022/10/05 03:14:01;;;;;;;13.32;10.55;;;14.80;99.90;;;;;;5079273;28;20482;-60
2022/10/05 03:16:58;;;;;;;15.20;10.00;;;14.80;99.90;;;;;;5074214;28;20056;-59
2022/10/05 03:19:43;;;;;;;15.18;10.00;;;14.80;99.90;;;;;;5063642;28;20119;-60
2022/10/05 03:22:32;;;;;;;11.98;9.77;;;14.80;99.90;;;;;;5062271;28;20086;-60
2022/10/05 03:25:46;;;;;;;12.75;10.23;;;14.80;99.90;;;;;;5051695;28;20155;-60
2022/10/05 03:28:24;;;;;;;12.10;9.35;;;14.80;99.90;;;;;;5071197;28;20082;-60
2022/10/05 03:30:54;;;;;;;13.32;10.15;;;14.80;99.90;;;;;;5068572;28;20051;-60
2022/10/05 03:33:47;;;;;;;11.93;9.15;;;14.80;99.90;;;;;;5077041;28;20058;-60
2022/10/05 03:36:16;;;;;;;14.15;9.90;;;14.80;99.90;;;;;;5074594;28;20036;-60
2022/10/05 03:38:58;;;;;;;9.95;8.90;;;14.80;99.90;;;;;;5069561;28;20549;-58
2022/10/05 03:41:28;;;;;;;;;;;14.80;99.90;;;;;;5079750;28;20054;-58
2022/10/05 03:44:14;;;;;;;11.63;10.05;;;14.80;99.90;;;;;;5062988;28;20006;-59
2022/10/05 03:46:49;;;;;;;12.85;10.85;;;14.70;99.90;;;;;;5042266;28;20086;-59
2022/10/05 03:50:00;;;;;;;15.27;10.20;;;14.70;99.90;;;;;;5056912;28;20055;-59
2022/10/05 03:52:58;;;;;;;13.50;10.43;;;14.70;99.90;;;;;;5055556;28;20048;-59
2022/10/05 03:55:55;;;;;;;11.15;9.90;;;14.70;99.90;;;;;;5078964;28;20056;-60
2022/10/05 03:59:00;;;;;;;13.27;9.95;;;14.60;99.90;;;;;;5076414;28;20508;-59
2022/10/05 04:01:46;;;;;;;13.93;9.57;;;14.60;99.90;;;;;;5051427;28;20064;-59
2022/10/05 04:04:21;;;;;;;14.15;9.98;;;14.60;99.90;;;;;;5077303;28;20109;-59
2022/10/05 04:06:50;;;;;;;13.88;10.68;;;14.60;99.90;;;;;;5077400;28;20601;-59
2022/10/05 04:09:28;;;;;;;12.13;10.40;;;14.70;99.90;;;;;;5046350;28;20093;-59
2022/10/05 04:12:16;;;;;;;12.45;9.73;;;14.70;99.90;;;;;;5072188;28;20152;-48
2022/10/05 04:15:07;;;;;;;13.27;10.23;;;14.60;99.90;;;;;;5080997;28;20064;-45
2022/10/05 04:17:39;;;;;;;12.73;9.77;;;14.60;99.90;;;;;;5081375;28;20052;-45
2022/10/05 04:20:35;;;;;;;10.45;9.35;;;14.60;99.90;;;;;;5066364;28;20075;-43
2022/10/05 04:23:14;;;;;;;11.60;10.30;;;14.70;99.90;;;;;;5083587;28;20051;-44
2022/10/05 04:25:52;;;;;;;11.65;10.45;;;14.60;99.90;;;;;;5064710;28;20036;-45
2022/10/05 04:28:40;;;;;;;12.48;10.65;;;14.60;99.90;;;;;;5064601;28;20468;-43
2022/10/05 04:31:14;;;;;;;14.13;10.63;;;14.60;99.90;;;;;;5048535;28;20125;-46
2022/10/05 04:33:47;;;;;;;14.27;10.30;;;14.60;99.90;;;;;;5072890;28;20048;-44
2022/10/05 04:36:21;;;;;;;;;;;14.60;99.90;;;;;;5058790;28;20400;-45
2022/10/05 04:38:53;;;;;;;16.48;10.55;;;14.50;99.90;;;;;;5082115;28;19931;-47
2022/10/05 04:41:26;;;;;;;15.68;11.82;;;14.50;99.90;;;;;;5080178;28;20076;-45
2022/10/05 04:44:16;;;;;;;13.00;11.02;;;14.50;99.90;;;;;;5080874;28;20066;-45
2022/10/05 04:47:00;;;;;;;14.95;11.05;;;14.60;99.90;;;;;;5095811;28;20063;-45
2022/10/05 04:49:41;;;;;;;13.75;11.32;;;14.60;99.90;;;;;;5080007;28;20057;-44
2022/10/05 04:52:24;;;;;;;16.38;11.45;;;14.60;99.90;;;;;;5077254;28;20071;-49
2022/10/05 04:55:09;;;;;;;12.93;10.52;;;14.50;99.90;;;;;;5076189;28;20063;-46
2022/10/05 04:57:44;;;;;;;13.73;11.48;;;14.50;99.90;;;;;;5060505;28;20048;-45
2022/10/05 05:00:52;;;;;;;14.63;11.52;;;14.40;99.90;;;;;;5083569;28;20182;-44
2022/10/05 05:03:37;;;;;;;14.07;11.48;;;14.40;99.90;;;;;;5093226;28;20056;-58
2022/10/05 05:06:33;;;;;;;14.70;12.40;;;14.40;99.90;;;;;;5044044;28;20052;-44
2022/10/05 05:09:37;;;;;;;14.50;11.15;;;14.40;99.90;;;;;;5060543;28;20054;-44
2022/10/05 05:12:46;;;;;;;14.38;11.55;;;14.30;99.90;;;;;;5014285;28;20056;-46
2022/10/05 05:15:17;;;;;;;16.63;12.00;;;14.30;99.90;;;;;;5063883;28;20606;-58
2022/10/05 05:18:06;;;;;;;15.73;12.43;;;14.20;99.90;;;;;;5052160;28;20064;-58
2022/10/05 05:20:42;;;;;;;17.05;13.77;;;14.20;99.90;;;;;;5070338;28;20484;-58
2022/10/05 05:23:50;;;;;;;17.65;12.98;;;14.20;99.90;;;;;;5069094;28;20075;-57
2022/10/05 05:26:46;;;;;;;15.15;12.70;;;14.20;99.90;;;;;;5055693;28;20155;-57
2022/10/05 05:29:28;;;;;;;16.27;13.60;;;14.10;99.90;;;;;;5052193;28;20179;-48
2022/10/05 05:32:16;;;;;;;14.90;13.18;;;14.20;99.90;;;;;;5076515;28;20133;-45
2022/10/05 05:35:15;;;;;;;18.67;14.10;;;14.20;99.90;;;;;;5068079;28;20052;-44
2022/10/05 05:38:12;;;;;;;15.18;12.95;;;14.20;99.90;;;;;;5067671;28;20060;-47
2022/10/05 05:41:07;;;;;;;17.92;13.63;;;14.20;99.90;;;;;;5065954;28;20091;-58
2022/10/05 05:44:12;;;;;;;17.83;13.85;;;14.20;99.90;;;;;;5069396;28;20135;-58
2022/10/05 05:46:45;;;;;;;14.00;12.50;;;14.20;99.90;;;;;;5059376;28;20221;-58
2022/10/05 05:49:21;;;;;;;17.80;13.60;;;14.20;99.90;;;;;;5032808;28;20928;-58
2022/10/05 05:51:56;;;;;;;15.95;14.20;;;14.20;99.90;;;;;;5073259;28;20048;-48
2022/10/05 05:54:37;;;;;;;16.33;14.63;;;14.20;99.90;;;;;;5071205;28;20044;-48
2022/10/05 05:57:20;;;;;;;16.05;13.80;;;14.20;99.90;;;;;;5055740;28;20160;-48
2022/10/05 06:00:04;;;;;;;19.02;15.52;;;14.20;99.90;;;;;;5071747;28;20044;-47
2022/10/05 06:02:49;;;;;;;15.65;13.90;;;14.30;99.90;;;;;;5057044;28;20052;-58
2022/10/05 06:05:27;;;;;;;16.20;13.98;;;14.20;99.90;;;;;;5071767;28;20040;-58
2022/10/05 06:08:03;;;;;;;16.10;14.07;;;14.30;99.90;;;;;;5051525;28;20040;-45
2022/10/05 06:10:41;;;;;;;17.77;14.70;;;14.30;99.90;;;;;;5076676;28;20139;-47
2022/10/05 06:13:32;;;;;;;19.33;14.45;;;14.30;99.90;;;;;;5050914;28;20224;-57
2022/10/05 06:16:33;;;;;;;17.75;15.25;;;14.30;99.90;;;;;;5069457;28;20143;-45
2022/10/05 06:19:10;;;;;;;14.63;13.13;;;14.30;99.90;;;;;;5051186;28;20048;-45
2022/10/05 06:22:00;;;;;;;17.33;14.65;;;14.30;99.90;;;;;;5055767;28;20044;-45
2022/10/05 06:25:05;;;;;;;19.02;14.63;;;14.30;99.90;;;;;;5069045;28;20100;-44
2022/10/05 06:28:10;;;;;;;17.35;14.35;;;14.30;99.90;;;;;;5065499;28;20105;-45
2022/10/05 06:30:51;;;;;;;16.30;14.70;;;14.30;99.90;;;;;;5078406;28;20056;-56
2022/10/05 06:33:40;;;;;;;17.42;14.13;;;14.30;99.90;;;;;;5055037;28;20052;-44
2022/10/05 06:36:19;;;;;;;18.05;15.88;;;14.40;99.90;;;;;;5066869;28;20139;-56
2022/10/05 06:39:16;;;;;;;15.98;14.00;;;14.40;99.90;;;;;;5068526;28;20053;-44
2022/10/05 06:42:03;;;;;;;16.13;14.48;;;14.40;99.90;;;;;;5067008;28;20040;-56
2022/10/05 06:44:58;;;;;;;15.77;12.93;;;14.40;99.90;;;;;;5070191;28;20777;-53
2022/10/05 06:47:55;;;;;;;14.98;13.07;;;14.50;99.90;;;;;;5054111;28;20041;-57
2022/10/05 06:51:04;;;;;;;15.48;13.88;;;14.50;99.90;;;;;;5062662;28;20087;-44
2022/10/05 06:53:47;;;;;;;18.85;14.10;;;14.50;99.90;;;;;;5056689;28;20445;-44
2022/10/05 06:56:29;;;;;;;16.45;14.85;;;14.50;99.90;;;;;;5051676;28;20048;-42
2022/10/05 06:59:04;;;;;;;18.08;15.32;;;14.50;99.90;;;;;;5054733;28;20055;-55
2022/10/05 07:01:46;;;;;;;17.08;14.05;;;14.50;99.90;;;;;;5060227;28;20036;-44
2022/10/05 07:04:21;;;;;;;15.23;13.73;;;14.50;99.90;;;;;;5076580;28;20055;-43
2022/10/05 07:06:59;;;;;;;15.80;13.98;;;14.60;99.90;;;;;;5067159;28;20056;-43
2022/10/05 07:09:29;;;;;;;15.65;13.95;;;14.60;99.90;;;;;;5052909;28;20059;-44
2022/10/05 07:12:31;;;;;;;15.45;13.85;;;14.60;99.90;;;;;;5071970;28;20039;-42
2022/10/05 07:15:28;;;;;;;13.95;12.55;;;14.70;99.90;;;;;;5069972;28;20059;-43
2022/10/05 07:18:19;;;;;;;15.85;14.07;;;14.70;99.90;;;;;;5068315;28;20136;-45
2022/10/05 07:21:02;;;;;;;14.02;12.63;;;14.70;99.90;;;;;;5033569;28;20044;-44
2022/10/05 07:23:55;;;;;;;14.88;13.13;;;14.80;99.90;;;;;;5060914;28;20052;-43
2022/10/05 07:26:44;;;;;;;15.68;12.82;;;14.80;99.90;;;;;;5035673;28;20055;-44
2022/10/05 07:29:48;;;;;;;14.20;12.40;;;14.80;99.90;;;;;;5073797;28;20135;-42
2022/10/05 07:32:23;;;;;;;13.38;11.80;;;14.90;99.90;;;;;;5063618;28;20052;-43
2022/10/05 07:34:55;;;;;;;13.45;12.18;;;14.90;99.90;;;;;;5069049;28;20058;-45
2022/10/05 07:37:58;;;;;;;13.50;11.10;;;15.00;99.90;;;;;;5068256;28;20190;-43
2022/10/05 07:40:39;;;;;;;12.90;11.60;;;15.10;99.90;;;;;;5069901;28;20056;-42
2022/10/05 07:43:16;;;;;;;14.15;11.38;;;15.20;99.90;;;;;;5053067;28;20114;-42
2022/10/05 07:45:58;;;;;;;12.82;11.60;;;15.10;99.90;;;;;;5073207;28;20052;-45
2022/10/05 07:48:42;;;;;;;12.73;10.35;;;15.20;99.90;;;;;;5071228;28;20040;-47
2022/10/05 07:51:34;;;;;;;12.70;11.23;;;15.20;99.90;;;;;;5079231;28;20050;-43
2022/10/05 07:54:24;;;;;;;12.38;10.93;;;15.20;99.90;;;;;;5069337;28;20051;-43
2022/10/05 07:57:04;;;;;;;11.50;10.13;;;15.30;99.90;;;;;;5056021;28;20127;-44
2022/10/05 07:59:52;;;;;;;13.70;10.32;;;15.30;99.90;;;;;;5069475;28;20376;-48
2022/10/05 08:02:31;;;;;;;13.52;10.55;;;15.30;99.90;;;;;;5072852;28;20044;-45
2022/10/05 08:05:15;;;;;;;12.18;10.13;;;15.40;99.90;;;;;;5069266;28;20117;-43
2022/10/05 08:07:41;;;;;;;12.45;10.52;;;15.40;99.90;;;;;;5064407;28;20044;-58
2022/10/05 08:10:39;;;;;;;12.75;11.07;;;15.60;99.90;;;;;;5047523;28;20499;-55
2022/10/05 08:13:44;;;;;;;12.60;9.88;;;15.50;99.90;;;;;;5055321;28;20048;-56
2022/10/05 08:16:12;;;;;;;12.68;9.43;;;15.60;99.90;;;;;;5033180;28;20581;-56
2022/10/05 08:18:56;;;;;;;11.70;10.45;;;15.70;99.90;;;;;;5065633;28;20534;-56
2022/10/05 08:21:34;;;;;;;9.90;8.90;;;15.70;99.90;;;;;;5068865;28;20036;-55
2022/10/05 08:24:32;;;;;;;11.45;9.48;;;15.80;99.90;;;;;;5071908;28;20082;-58
2022/10/05 08:27:03;;;;;;;9.90;8.55;;;15.80;99.90;;;;;;5068956;28;20113;-56
2022/10/05 08:29:46;;;;;;;10.20;8.60;;;15.90;99.90;;;;;;5050002;28;20441;-55
2022/10/05 08:32:35;;;;;;;10.98;8.50;;;15.90;99.90;;;;;;5046001;28;20051;-56
2022/10/05 08:35:10;;;;;;;10.60;8.90;;;16.00;99.90;;;;;;5064426;28;20055;-57
2022/10/05 08:37:40;;;;;;;10.57;9.45;;;16.00;99.90;;;;;;5066030;28;20053;-55
2022/10/05 08:40:18;;;;;;;10.05;7.80;;;16.00;99.90;;;;;;5068431;28;20040;-55
2022/10/05 08:43:03;;;;;;;9.90;7.82;;;16.00;99.90;;;;;;5068574;28;20055;-58
2022/10/05 08:45:49;;;;;;;8.80;7.93;;;16.10;99.90;;;;;;5066227;28;20063;-56
2022/10/05 08:48:53;;;;;;;8.98;8.07;;;16.10;99.90;;;;;;5067099;28;20052;-56
2022/10/05 08:51:45;;;;;;;11.65;8.60;;;16.10;99.90;;;;;;5061745;28;20123;-55
2022/10/05 08:54:36;;;;;;;8.82;7.95;;;16.10;99.90;;;;;;5064273;28;20055;-57
2022/10/05 08:57:17;;;;;;;8.55;7.45;;;16.20;99.90;;;;;;5066937;28;20048;-56
2022/10/05 09:00:13;;;;;;;8.80;7.53;;;16.20;99.90;;;;;;5077976;28;20064;-56
2022/10/05 09:03:01;;;;;;;8.88;7.97;;;16.40;99.90;;;;;;5072202;28;20131;-56
2022/10/05 09:05:40;;;;;;;8.98;6.82;;;16.30;99.90;;;;;;5066273;28;20048;-56
2022/10/05 09:08:08;;;;;;;7.40;6.38;;;16.40;99.90;;;;;;5051303;28;20041;-56
2022/10/05 09:10:54;;;;;;;8.55;7.47;;;16.40;99.90;;;;;;5078366;28;20579;-57
2022/10/05 09:13:30;;;;;;;8.38;6.20;;;16.40;99.90;;;;;;5070324;28;20036;-56
2022/10/05 09:16:17;;;;;;;8.30;6.68;;;16.40;99.90;;;;;;5079440;28;20085;-57
2022/10/05 09:19:21;;;;;;;7.45;6.03;;;16.40;99.90;;;;;;5068389;28;20036;-56
2022/10/05 09:22:13;;;;;;;8.18;7.18;;;16.40;99.90;;;;;;5006938;28;20127;-56
2022/10/05 09:24:56;;;;;;;6.55;5.85;;;16.40;99.90;;;;;;5041231;28;20051;-57
2022/10/05 09:27:36;;;;;;;7.25;5.90;;;16.40;99.90;;;;;;5070495;28;20054;-56
2022/10/05 09:30:15;;;;;;;6.57;5.85;;;16.50;99.90;;;;;;5076808;28;20051;-56
2022/10/05 09:32:56;;;;;;;6.32;5.50;;;16.60;99.90;;;;;;5076336;28;20440;-57
2022/10/05 09:35:41;;;;;;;5.82;5.20;;;16.60;99.90;;;;;;5082897;28;20083;-56
2022/10/05 09:38:30;;;;;;;7.07;4.82;;;16.60;99.90;;;;;;5071024;28;20045;-57
2022/10/05 09:41:15;;;;;;;7.95;5.20;;;16.70;99.90;;;;;;5068974;28;20124;-57
2022/10/05 09:44:17;;;;;;;6.15;5.13;;;16.60;99.90;;;;;;5069566;28;20074;-46
2022/10/05 09:46:58;;;;;;;;;;;16.60;99.90;;;;;;5073594;28;20549;-46
2022/10/05 09:50:01;;;;;;;6.53;5.18;;;16.60;99.90;;;;;;5075258;28;19924;-45
2022/10/05 09:52:46;;;;;;;7.57;5.45;;;16.60;99.90;;;;;;5074712;28;20137;-48
2022/10/05 09:55:39;;;;;;;8.15;5.25;;;16.60;99.90;;;;;;5072904;28;20810;-47
2022/10/05 09:58:28;;;;;;;8.57;5.88;;;16.50;99.90;;;;;;5063802;28;20075;-45
2022/10/05 10:01:25;;;;;;;9.05;6.22;;;16.50;99.90;;;;;;5072819;28;20046;-46
2022/10/05 10:04:13;;;;;;;8.05;6.25;;;16.60;99.90;;;;;;5078691;28;20093;-45
2022/10/05 10:07:10;;;;;;;9.10;6.35;;;16.50;99.90;;;;;;5068075;28;20048;-46
2022/10/05 10:09:59;;;;;;;8.90;6.57;;;16.60;99.90;;;;;;5066282;28;20044;-50
2022/10/05 10:12:33;;;;;;;7.70;6.88;;;16.60;99.90;;;;;;5071951;28;21144;-43
2022/10/05 10:15:09;;;;;;;6.95;6.25;;;16.50;99.90;;;;;;5071193;28;20071;-45
2022/10/05 10:17:49;;;;;;;7.68;6.88;;;16.50;99.90;;;;;;5073666;28;20497;-56
2022/10/05 10:20:36;;;;;;;8.60;5.75;;;16.50;99.90;;;;;;5070085;28;20579;-46
2022/10/05 10:23:28;;;;;;;8.90;6.28;;;16.50;99.90;;;;;;5068219;28;20047;-44
2022/10/05 10:26:18;;;;;;;7.30;5.78;;;16.50;99.90;;;;;;5051862;28;20083;-47
2022/10/05 10:29:08;;;;;;;7.80;5.97;;;16.50;99.90;;;;;;5075769;28;20155;-43
2022/10/05 10:31:43;;;;;;;6.20;5.60;;;16.60;99.90;;;;;;5075089;28;20223;-43
2022/10/05 10:34:37;;;;;;;8.52;5.32;;;16.50;99.90;;;;;;5055806;28;20101;-43
2022/10/05 10:37:22;;;;;;;12.30;9.98;;;16.50;99.90;;;;;;5069520;28;20040;-43
2022/10/05 10:40:12;;;;;;;7.03;5.75;;;16.60;99.90;;;;;;5068939;28;20040;-42
2022/10/05 10:42:55;;;;;;;5.97;5.35;;;16.60;99.90;;;;;;5065255;28;20086;-46
2022/10/05 10:45:27;;;;;;;5.57;4.97;;;16.60;99.90;;;;;;5055582;28;20044;-58
2022/10/05 10:48:22;;;;;;;6.57;5.60;;;16.60;99.90;;;;;;5073746;28;20509;-58
2022/10/05 10:50:53;;;;;;;6.00;5.35;;;16.70;99.90;;;;;;5067115;28;20066;-56
2022/10/05 10:54:02;;;;;;;7.70;5.30;;;16.80;99.90;;;;;;5051544;28;20349;-59
2022/10/05 10:56:41;;;;;;;6.60;5.32;;;16.90;99.90;;;;;;5075385;28;20044;-42
2022/10/05 10:59:29;;;;;;;5.78;5.15;;;16.90;99.90;;;;;;5047375;28;20071;-42
2022/10/05 11:02:07;;;;;;;6.03;5.35;;;17.10;99.90;;;;;;5069285;28;20586;-43
2022/10/05 11:04:52;;;;;;;5.35;4.85;;;17.00;99.90;;;;;;5072999;28;20127;-42
2022/10/05 11:07:42;;;;;;;5.10;4.60;;;17.10;99.90;;;;;;5050536;28;20056;-43
2022/10/05 11:10:27;;;;;;;6.15;4.63;;;17.10;99.90;;;;;;5072093;28;21753;-42
2022/10/05 11:13:15;;;;;;;6.82;5.35;;;17.00;99.90;;;;;;5073716;28;20044;-47
2022/10/05 11:16:06;;;;;;;8.60;5.05;;;17.10;99.90;;;;;;5077633;28;20055;-43
2022/10/05 11:19:02;;;;;;;6.27;4.67;;;17.00;99.90;;;;;;5076712;28;20091;-43
2022/10/05 11:21:35;;;;;;;4.63;3.70;;;17.00;99.90;;;;;;5073839;28;20059;-43
2022/10/05 11:24:11;;;;;;;9.70;4.25;;;17.10;99.90;;;;;;5068171;28;20052;-44
2022/10/05 11:27:19;;;;;;;5.15;4.20;;;17.10;99.90;;;;;;5071459;28;20509;-44
2022/10/05 11:30:17;;;;;;;4.78;3.80;;;17.20;99.90;;;;;;5018261;28;20072;-43
2022/10/05 11:32:55;;;;;;;5.18;3.40;;;17.40;99.90;;;;;;5023891;28;20048;-45
2022/10/05 11:35:48;;;;;;;5.38;3.90;;;17.50;99.90;;;;;;5060321;28;20055;-45
2022/10/05 11:38:52;;;;;;;5.20;3.90;;;17.40;99.90;;;;;;5061175;28;20109;-44
2022/10/05 11:41:54;;;;;;;4.95;3.50;;;17.30;99.90;;;;;;5070473;28;20077;-42
2022/10/05 11:44:58;;;;;;;6.22;3.50;;;17.20;99.90;;;;;;5067839;28;20048;-43
2022/10/05 11:47:32;;;;;;;5.53;4.20;;;17.30;99.90;;;;;;5074462;28;20048;-43
2022/10/05 11:50:09;;;;;;;9.57;4.57;;;17.30;99.90;;;;;;5064706;28;20052;-45
2022/10/05 11:52:47;;;;;;;7.47;4.10;;;17.30;99.90;;;;;;5069393;28;20119;-43
2022/10/05 11:55:31;;;;;;;9.48;4.25;;;17.20;99.90;;;;;;5065982;28;20064;-45
2022/10/05 11:58:11;;;;;;;8.23;4.35;;;17.10;99.90;;;;;;5060070;28;20612;-44
2022/10/05 12:00:53;;;;;;;5.97;3.92;;;17.10;99.90;;;;;;5070206;28;20123;-43
2022/10/05 12:03:45;;;;;;;6.57;4.03;;;17.10;99.90;;;;;;5071795;28;20840;-43
2022/10/05 12:06:23;;;;;;;7.20;4.35;;;17.10;99.90;;;;;;5053740;28;20052;-44
2022/10/05 12:09:07;;;;;;;7.25;4.47;;;17.10;99.90;;;;;;5071774;28;20131;-41
2022/10/05 12:11:52;;;;;;;5.60;4.05;;;17.10;99.90;;;;;;5070460;28;21253;-43
2022/10/05 12:14:41;;;;;;;7.97;4.25;;;17.10;99.90;;;;;;5061152;28;20087;-43
2022/10/05 12:17:33;;;;;;;6.25;3.90;;;17.10;99.90;;;;;;5064033;28;20092;-42
2022/10/05 12:20:16;;;;;;;5.15;3.88;;;17.10;99.90;;;;;;5070168;28;20051;-41
2022/10/05 12:23:05;;;;;;;7.10;4.45;;;17.00;99.90;;;;;;5067975;28;20047;-43
2022/10/05 12:25:37;;;;;;;5.20;4.05;;;17.10;99.90;;;;;;5072235;28;20052;-43
2022/10/05 12:28:20;;;;;;;6.35;4.50;;;17.10;99.90;;;;;;5069686;28;20047;-42
2022/10/05 12:31:06;;;;;;;6.43;4.80;;;17.10;99.90;;;;;;5057948;28;20399;-45
2022/10/05 12:33:53;;;;;;;8.80;4.28;;;17.10;99.90;;;;;;5070840;28;20049;-42
2022/10/05 12:36:27;;;;;;;8.57;7.50;;;17.10;99.90;;;;;;5059781;28;20051;-42
2022/10/05 12:39:24;;;;;;;6.95;4.70;;;17.10;99.90;;;;;;5073963;28;20051;-46
2022/10/05 12:42:25;;;;;;;6.15;3.83;;;17.10;99.90;;;;;;5053905;28;20655;-43
2022/10/05 12:45:13;;;;;;;7.65;4.20;;;17.10;99.90;;;;;;5041975;28;20048;-44
2022/10/05 12:47:47;;;;;;;5.10;4.35;;;17.10;99.90;;;;;;5051412;28;20833;-42
2022/10/05 12:50:16;;;;;;;9.32;4.40;;;17.10;99.90;;;;;;5070255;28;20102;-54
2022/10/05 12:52:58;;;;;;;10.50;4.75;;;17.10;99.90;;;;;;5051866;28;20045;-58
2022/10/05 12:55:28;;;;;;;7.55;4.85;;;17.20;99.90;;;;;;5060577;28;20516;-58
2022/10/05 12:58:13;;;;;;;7.80;4.55;;;17.20;99.90;;;;;;5071276;28;20048;-58
2022/10/05 13:00:49;;;;;;;9.07;5.72;;;17.30;99.90;;;;;;5076013;28;20047;-58
2022/10/05 13:03:29;;;;;;;7.85;5.15;;;17.30;99.90;;;;;;5077261;28;20044;-58
2022/10/05 13:06:26;;;;;;;10.05;4.88;;;17.40;99.90;;;;;;5075458;28;20044;-56
2022/10/05 13:09:00;;;;;;;6.93;4.18;;;17.40;99.90;;;;;;5070464;28;20056;-58
2022/10/05 13:11:34;;;;;;;8.40;3.83;;;17.40;99.90;;;;;;5068340;28;20052;-58
2022/10/05 13:14:35;;;;;;;6.32;4.03;;;17.40;99.90;;;;;;5069270;28;20044;-57
2022/10/05 13:17:19;;;;;;;8.52;4.78;;;17.40;99.90;;;;;;5064021;28;20422;-58
2022/10/05 13:19:51;;;;;;;7.07;3.72;;;17.50;99.90;;;;;;5068867;28;20056;-58
2022/10/05 13:22:31;;;;;;;6.20;4.45;;;17.50;99.90;;;;;;5067940;28;20094;-58
2022/10/05 13:25:08;;;;;;;6.53;4.35;;;17.60;99.90;;;;;;5072633;28;20062;-59
2022/10/05 13:27:39;;;;;;;8.77;4.30;;;17.70;99.90;;;;;;5053594;28;20059;-58
2022/10/05 13:30:20;;;;;;;6.68;4.03;;;18.00;99.90;;;;;;5072312;28;20036;-43
2022/10/05 13:32:48;;;;;;;6.43;3.33;;;18.30;99.90;;;;;;5055835;28;20051;-44
2022/10/05 13:35:51;;;;;;;6.13;4.00;;;18.80;99.90;;;;;;5052881;28;20044;-43
2022/10/05 13:38:40;;;;;;;7.18;3.70;;;18.80;99.90;;;;;;5057152;28;20146;-43
2022/10/05 13:41:38;;;;;;;5.80;3.55;;;19.00;99.90;;;;;;5058465;28;20053;-58
2022/10/05 13:44:20;;;;;;;5.90;3.55;;;18.80;99.90;;;;;;5063914;28;20044;-58
2022/10/05 13:47:11;;;;;;;6.20;3.08;;;19.00;99.90;;;;;;5068825;28;20111;-59
2022/10/05 13:49:48;;;;;;;10.20;4.93;;;18.80;99.90;;;;;;5052723;28;20679;-43
2022/10/05 13:52:14;;;;;;;5.85;3.45;;;18.70;99.90;;;;;;5089241;28;20748;-44
2022/10/05 13:54:46;;;;;;;7.55;3.25;;;18.60;99.90;;;;;;5071217;28;20130;-43
2022/10/05 13:57:46;;;;;;;4.93;3.67;;;18.50;99.90;;;;;;5069159;28;20055;-42
2022/10/05 14:00:23;;;;;;;5.88;3.03;;;18.40;99.90;;;;;;5087030;28;20047;-40
2022/10/05 14:02:52;;;;;;;7.72;5.65;;;18.30;99.90;;;;;;5050403;28;20044;-42
2022/10/05 14:05:21;;;;;;;6.93;3.22;;;18.30;99.90;;;;;;5054012;28;20067;-43